UAL507 KSFO-LIRF
Flight info
| Callsign | UAL507 |
|---|---|
| Flight time | N/A |
| Altitude | 35000 |
| Route | SNTNA2 ORRCA DCT FMG J94 LLC DCT DLN DCT HILGR DCT GGW DCT 50N101W 52N090W/N0488F370 DCT PIGLA DCT MCKEE/M083F370 DCT TOXIT DCT 60N050W/M083F390 61N040W 61N030W 60N020W DCT GOMUP/N0471F390 DCT GINGA DCT DONIB DCT DIMLI DCT DUFFY DCT RINGA DCT MAKUX DCT SOSIM L15 KEPAD L151 DISIT/N0486F410 L151 MID UL612 OGULO DCT OKASI DCT OKEKO DCT MOU DCT MADIV DCT MOKIP DCT TUFTA DCT KOGAS DCT MEDAM DCT NITAM DCT MOGBO DCT ELB/N0476F400 DCT ELKAP |
| Aircraft | B772/H-SDE2E3FGHIJ5LORVWXY/LB1D1 |
Departure
| Time | 2026-05-04 00:20 |
|---|---|
| Airport | San Francisco International Airport (KSFO) |
Arrival
| Time | N/A |
|---|---|
| Airport | Rome–Fiumicino Leonardo da Vinci International Airport (LIRF) |
| Time | Latitude | Longitude | Altitude | Speed | Heading |
|---|---|---|---|---|---|
| 2026-05-03 23:02 | 37.61794 | -122.39369 | 27 ft | 0 kts | 28° |
| 2026-05-04 00:07 | 37.61785 | -122.39375 | 26 ft | 2 kts | 28° |
| 2026-05-04 00:07 | 37.61771 | -122.39384 | 26 ft | 2 kts | 28° |
| 2026-05-04 00:07 | 37.61756 | -122.39393 | 26 ft | 2 kts | 14° |
| 2026-05-04 00:08 | 37.61740 | -122.39393 | 26 ft | 2 kts | 340° |
| 2026-05-04 00:08 | 37.61728 | -122.39383 | 26 ft | 1 kts | 310° |
| 2026-05-04 00:08 | 37.61727 | -122.39380 | 26 ft | 0 kts | 308° |
| 2026-05-04 00:10 | 37.61728 | -122.39382 | 26 ft | 3 kts | 308° |
| 2026-05-04 00:11 | 37.61782 | -122.39465 | 26 ft | 16 kts | 316° |
| 2026-05-04 00:11 | 37.61849 | -122.39503 | 26 ft | 16 kts | 345° |
| 2026-05-04 00:11 | 37.61916 | -122.39509 | 26 ft | 14 kts | 22° |
| 2026-05-04 00:12 | 37.61979 | -122.39419 | 26 ft | 15 kts | 78° |
| 2026-05-04 00:12 | 37.62001 | -122.39291 | 26 ft | 14 kts | 78° |
| 2026-05-04 00:12 | 37.62072 | -122.39187 | 26 ft | 21 kts | 28° |
| 2026-05-04 00:12 | 37.62199 | -122.39097 | 26 ft | 20 kts | 37° |
| 2026-05-04 00:13 | 37.62253 | -122.38940 | 26 ft | 20 kts | 76° |
| 2026-05-04 00:13 | 37.62205 | -122.38792 | 26 ft | 19 kts | 119° |
| 2026-05-04 00:13 | 37.62152 | -122.38648 | 26 ft | 18 kts | 113° |
| 2026-05-04 00:13 | 37.62093 | -122.38517 | 26 ft | 17 kts | 123° |
| 2026-05-04 00:14 | 37.62036 | -122.38394 | 26 ft | 16 kts | 114° |
| 2026-05-04 00:14 | 37.61988 | -122.38273 | 26 ft | 15 kts | 117° |
| 2026-05-04 00:14 | 37.61943 | -122.38161 | 26 ft | 14 kts | 117° |
| 2026-05-04 00:14 | 37.61900 | -122.38056 | 26 ft | 13 kts | 117° |
| 2026-05-04 00:15 | 37.61860 | -122.37958 | 26 ft | 13 kts | 117° |
| 2026-05-04 00:15 | 37.61821 | -122.37861 | 26 ft | 12 kts | 114° |
| 2026-05-04 00:15 | 37.61798 | -122.37761 | 26 ft | 12 kts | 107° |
| 2026-05-04 00:15 | 37.61775 | -122.37667 | 26 ft | 11 kts | 107° |
| 2026-05-04 00:16 | 37.61744 | -122.37561 | 26 ft | 17 kts | 113° |
| 2026-05-04 00:16 | 37.61687 | -122.37414 | 26 ft | 21 kts | 117° |
| 2026-05-04 00:16 | 37.61620 | -122.37253 | 26 ft | 22 kts | 118° |
| 2026-05-04 00:16 | 37.61541 | -122.37067 | 26 ft | 26 kts | 118° |
| 2026-05-04 00:17 | 37.61447 | -122.36870 | 26 ft | 25 kts | 134° |
| 2026-05-04 00:17 | 37.61341 | -122.36712 | 26 ft | 23 kts | 120° |
| 2026-05-04 00:17 | 37.61258 | -122.36511 | 26 ft | 29 kts | 118° |
| 2026-05-04 00:17 | 37.61157 | -122.36273 | 26 ft | 33 kts | 118° |
| 2026-05-04 00:18 | 37.61063 | -122.36050 | 26 ft | 20 kts | 117° |
| 2026-05-04 00:18 | 37.61064 | -122.35952 | 26 ft | 4 kts | 66° |
| 2026-05-04 00:18 | 37.61082 | -122.35923 | 26 ft | 11 kts | 50° |
| 2026-05-04 00:18 | 37.61158 | -122.35864 | 26 ft | 8 kts | 3° |
| 2026-05-04 00:19 | 37.61196 | -122.35895 | 26 ft | 6 kts | 298° |
| 2026-05-04 00:19 | 37.61279 | -122.36090 | 26 ft | 55 kts | 297° |
| 2026-05-04 00:19 | 37.61565 | -122.36776 | 27 ft | 120 kts | 297° |
| 2026-05-04 00:19 | 37.62049 | -122.37932 | 29 ft | 176 kts | 298° |
| 2026-05-04 00:20 | 37.62667 | -122.39382 | 521 ft | 183 kts | 295° |
| 2026-05-04 00:20 | 37.63211 | -122.40798 | 1370 ft | 187 kts | 292° |
| 2026-05-04 00:20 | 37.63794 | -122.42361 | 1683 ft | 206 kts | 292° |
| 2026-05-04 00:20 | 37.64470 | -122.44038 | 1958 ft | 222 kts | 295° |
| 2026-05-04 00:21 | 37.65244 | -122.45815 | 2224 ft | 240 kts | 296° |
| 2026-05-04 00:21 | 37.66099 | -122.47698 | 2675 ft | 250 kts | 297° |
| 2026-05-04 00:21 | 37.66988 | -122.49601 | 3275 ft | 253 kts | 300° |
| 2026-05-04 00:21 | 37.68205 | -122.51255 | 3714 ft | 266 kts | 323° |
| 2026-05-04 00:22 | 37.69924 | -122.52154 | 4296 ft | 271 kts | 342° |
| 2026-05-04 00:22 | 37.71803 | -122.52547 | 4882 ft | 276 kts | 352° |
| 2026-05-04 00:22 | 37.73738 | -122.52703 | 5445 ft | 280 kts | 357° |
| 2026-05-04 00:22 | 37.75692 | -122.52734 | 6070 ft | 281 kts | 359° |
| 2026-05-04 00:23 | 37.77656 | -122.52683 | 6601 ft | 284 kts | 7° |
| 2026-05-04 00:23 | 37.79483 | -122.51898 | 7031 ft | 285 kts | 33° |
| 2026-05-04 00:23 | 37.80917 | -122.50138 | 7627 ft | 280 kts | 56° |
| 2026-05-04 00:23 | 37.81960 | -122.48096 | 8135 ft | 283 kts | 59° |
| 2026-05-04 00:24 | 37.82951 | -122.45949 | 8661 ft | 283 kts | 64° |
| 2026-05-04 00:24 | 37.83947 | -122.43787 | 9158 ft | 287 kts | 59° |
| 2026-05-04 00:24 | 37.85120 | -122.41720 | 9678 ft | 290 kts | 56° |
| 2026-05-04 00:24 | 37.86391 | -122.39683 | 10190 ft | 294 kts | 53° |
| 2026-05-04 00:25 | 37.87724 | -122.37677 | 10385 ft | 309 kts | 52° |
| 2026-05-04 00:25 | 37.89175 | -122.35575 | 10529 ft | 326 kts | 51° |
| 2026-05-04 00:25 | 37.90740 | -122.33341 | 10687 ft | 343 kts | 51° |
| 2026-05-04 00:25 | 37.92334 | -122.31058 | 10966 ft | 356 kts | 51° |
| 2026-05-04 00:26 | 37.93995 | -122.28671 | 11396 ft | 366 kts | 51° |
| 2026-05-04 00:26 | 37.95666 | -122.26262 | 11945 ft | 372 kts | 50° |
| 2026-05-04 00:26 | 37.97403 | -122.23752 | 12659 ft | 375 kts | 51° |
| 2026-05-04 00:26 | 37.99129 | -122.21253 | 13358 ft | 378 kts | 51° |
| 2026-05-04 00:27 | 38.00869 | -122.18731 | 14057 ft | 381 kts | 51° |
| 2026-05-04 00:27 | 38.02624 | -122.16185 | 14746 ft | 385 kts | 51° |
| 2026-05-04 00:27 | 38.04394 | -122.13614 | 15403 ft | 388 kts | 51° |
| 2026-05-04 00:27 | 38.06178 | -122.11021 | 16052 ft | 391 kts | 51° |
| 2026-05-04 00:28 | 38.07986 | -122.08419 | 16670 ft | 395 kts | 51° |
| 2026-05-04 00:28 | 38.09810 | -122.05802 | 17283 ft | 398 kts | 51° |
| 2026-05-04 00:28 | 38.11644 | -122.03154 | 17885 ft | 401 kts | 52° |
| 2026-05-04 00:28 | 38.13488 | -122.00483 | 18460 ft | 403 kts | 52° |
| 2026-05-04 00:29 | 38.15337 | -121.97798 | 19046 ft | 405 kts | 52° |
| 2026-05-04 00:29 | 38.17196 | -121.95093 | 19613 ft | 407 kts | 52° |
| 2026-05-04 00:29 | 38.19060 | -121.92376 | 20151 ft | 409 kts | 52° |
| 2026-05-04 00:29 | 38.20870 | -121.89736 | 20641 ft | 411 kts | 52° |
| 2026-05-04 00:30 | 38.22778 | -121.86949 | 21140 ft | 413 kts | 53° |
| 2026-05-04 00:30 | 38.24638 | -121.84256 | 21612 ft | 414 kts | 52° |
| 2026-05-04 00:30 | 38.26593 | -121.81423 | 22093 ft | 416 kts | 53° |
| 2026-05-04 00:30 | 38.28514 | -121.78618 | 22526 ft | 418 kts | 53° |
| 2026-05-04 00:31 | 38.30420 | -121.75819 | 22961 ft | 420 kts | 53° |
| 2026-05-04 00:31 | 38.32268 | -121.73100 | 23427 ft | 420 kts | 53° |
| 2026-05-04 00:31 | 38.34182 | -121.70280 | 23845 ft | 422 kts | 53° |
| 2026-05-04 00:31 | 38.36145 | -121.67385 | 24212 ft | 425 kts | 53° |
| 2026-05-04 00:32 | 38.38078 | -121.64534 | 24618 ft | 426 kts | 53° |
| 2026-05-04 00:32 | 38.40020 | -121.61668 | 25054 ft | 427 kts | 53° |
| 2026-05-04 00:32 | 38.41961 | -121.58804 | 25449 ft | 428 kts | 53° |
| 2026-05-04 00:32 | 38.43887 | -121.55962 | 25793 ft | 430 kts | 53° |
| 2026-05-04 00:33 | 38.45807 | -121.53024 | 26184 ft | 430 kts | 55° |
| 2026-05-04 00:33 | 38.49134 | -121.47453 | 26821 ft | 432 kts | 57° |
| 2026-05-04 00:33 | 38.50906 | -121.44348 | 27166 ft | 434 kts | 57° |
| 2026-05-04 00:34 | 38.52690 | -121.41225 | 27499 ft | 435 kts | 57° |
| 2026-05-04 00:34 | 38.54488 | -121.38100 | 27822 ft | 437 kts | 57° |
| 2026-05-04 00:34 | 38.56315 | -121.34941 | 28147 ft | 439 kts | 57° |
| 2026-05-04 00:34 | 38.58115 | -121.31837 | 28449 ft | 440 kts | 57° |
| 2026-05-04 00:35 | 38.59948 | -121.28682 | 28746 ft | 442 kts | 57° |
| 2026-05-04 00:35 | 38.61808 | -121.25481 | 29050 ft | 444 kts | 57° |
| 2026-05-04 00:35 | 38.63650 | -121.22310 | 29344 ft | 445 kts | 56° |
| 2026-05-04 00:35 | 38.65511 | -121.19116 | 29613 ft | 447 kts | 56° |
| 2026-05-04 00:36 | 38.67363 | -121.15981 | 29922 ft | 447 kts | 56° |
| 2026-05-04 00:36 | 38.69236 | -121.12804 | 30295 ft | 447 kts | 56° |
| 2026-05-04 00:36 | 38.71104 | -121.09617 | 30482 ft | 450 kts | 56° |
| 2026-05-04 00:36 | 38.72979 | -121.06409 | 30772 ft | 451 kts | 56° |
| 2026-05-04 00:37 | 38.74856 | -121.03186 | 31015 ft | 453 kts | 56° |
| 2026-05-04 00:37 | 38.76742 | -120.99942 | 31267 ft | 454 kts | 56° |
| 2026-05-04 00:37 | 38.78634 | -120.96684 | 31502 ft | 456 kts | 56° |
| 2026-05-04 00:37 | 38.80529 | -120.93415 | 31754 ft | 457 kts | 56° |
| 2026-05-04 00:38 | 38.82428 | -120.90135 | 32043 ft | 458 kts | 56° |
| 2026-05-04 00:38 | 38.84294 | -120.86908 | 32311 ft | 458 kts | 56° |
| 2026-05-04 00:38 | 38.85586 | -120.84674 | 32463 ft | 460 kts | 55° |
| 2026-05-04 00:38 | 38.87475 | -120.81401 | 32693 ft | 461 kts | 55° |
| 2026-05-04 00:39 | 38.89399 | -120.78066 | 32955 ft | 462 kts | 55° |
| 2026-05-04 00:39 | 38.91312 | -120.74745 | 33228 ft | 462 kts | 55° |
| 2026-05-04 00:39 | 38.93224 | -120.71423 | 33466 ft | 464 kts | 55° |
| 2026-05-04 00:39 | 38.95114 | -120.68136 | 33704 ft | 464 kts | 55° |
| 2026-05-04 00:40 | 38.97069 | -120.64731 | 33970 ft | 465 kts | 55° |
| 2026-05-04 00:40 | 38.98976 | -120.61407 | 34228 ft | 465 kts | 55° |
| 2026-05-04 00:40 | 39.00907 | -120.58039 | 34439 ft | 467 kts | 55° |
| 2026-05-04 00:40 | 39.02815 | -120.54705 | 34650 ft | 468 kts | 55° |
| 2026-05-04 00:41 | 39.04757 | -120.51310 | 34910 ft | 468 kts | 55° |
| 2026-05-04 00:41 | 39.06686 | -120.47933 | 35034 ft | 471 kts | 55° |
| 2026-05-04 00:41 | 39.08639 | -120.44512 | 35049 ft | 476 kts | 55° |
| 2026-05-04 00:42 | 39.12588 | -120.37581 | 35060 ft | 482 kts | 55° |
| 2026-05-04 00:42 | 39.16550 | -120.30613 | 35072 ft | 480 kts | 55° |
| 2026-05-04 00:43 | 39.20475 | -120.23694 | 35086 ft | 477 kts | 55° |
| 2026-05-04 00:43 | 39.24392 | -120.16776 | 35099 ft | 476 kts | 55° |
| 2026-05-04 00:44 | 39.28277 | -120.09898 | 35107 ft | 474 kts | 55° |
| 2026-05-04 00:44 | 39.32158 | -120.03014 | 35103 ft | 472 kts | 56° |
| 2026-05-04 00:45 | 39.36036 | -119.96164 | 35075 ft | 472 kts | 55° |
| 2026-05-04 00:45 | 39.39901 | -119.89302 | 35033 ft | 473 kts | 56° |
| 2026-05-04 00:46 | 39.43728 | -119.82444 | 35000 ft | 471 kts | 56° |
| 2026-05-04 00:46 | 39.47564 | -119.75555 | 34982 ft | 469 kts | 56° |
| 2026-05-04 00:47 | 39.51379 | -119.68699 | 34981 ft | 469 kts | 56° |
| 2026-05-04 00:47 | 39.55176 | -119.61881 | 34985 ft | 469 kts | 56° |
| 2026-05-04 00:48 | 39.59004 | -119.55026 | 34983 ft | 469 kts | 56° |
| 2026-05-04 00:48 | 39.62813 | -119.48175 | 34980 ft | 469 kts | 56° |
| 2026-05-04 00:49 | 39.66617 | -119.41313 | 34975 ft | 470 kts | 56° |
| 2026-05-04 00:49 | 39.70457 | -119.34373 | 34945 ft | 471 kts | 56° |
| 2026-05-04 00:50 | 39.74276 | -119.27483 | 34934 ft | 470 kts | 55° |
| 2026-05-04 00:50 | 39.78130 | -119.20595 | 34924 ft | 471 kts | 56° |
| 2026-05-04 00:51 | 39.81966 | -119.13669 | 34916 ft | 472 kts | 56° |
| 2026-05-04 00:51 | 39.85765 | -119.06777 | 34910 ft | 472 kts | 56° |
| 2026-05-04 00:52 | 39.89612 | -118.99777 | 34903 ft | 472 kts | 56° |
| 2026-05-04 00:52 | 39.93419 | -118.92835 | 34897 ft | 472 kts | 56° |
| 2026-05-04 00:53 | 39.97253 | -118.85898 | 34891 ft | 471 kts | 56° |
| 2026-05-04 00:53 | 40.01048 | -118.78939 | 34887 ft | 469 kts | 56° |
| 2026-05-04 00:54 | 40.04803 | -118.72016 | 34886 ft | 464 kts | 56° |
| 2026-05-04 00:54 | 40.08520 | -118.65154 | 34880 ft | 462 kts | 56° |
| 2026-05-04 00:55 | 40.12430 | -118.58492 | 34881 ft | 464 kts | 48° |
| 2026-05-04 00:55 | 40.17209 | -118.52803 | 34881 ft | 466 kts | 42° |
| 2026-05-04 00:56 | 40.22242 | -118.47444 | 34882 ft | 466 kts | 41° |
| 2026-05-04 00:56 | 40.27293 | -118.42109 | 34885 ft | 467 kts | 41° |
| 2026-05-04 00:57 | 40.32339 | -118.36747 | 34888 ft | 467 kts | 41° |
| 2026-05-04 00:57 | 40.37349 | -118.31402 | 34890 ft | 467 kts | 41° |
| 2026-05-04 00:58 | 40.42406 | -118.26042 | 34891 ft | 467 kts | 41° |
| 2026-05-04 00:58 | 40.47462 | -118.20690 | 34893 ft | 467 kts | 41° |
| 2026-05-04 00:59 | 40.52520 | -118.15299 | 34894 ft | 467 kts | 41° |
| 2026-05-04 00:59 | 40.57568 | -118.09899 | 34894 ft | 468 kts | 41° |
| 2026-05-04 01:00 | 40.62615 | -118.04483 | 34891 ft | 468 kts | 41° |
| 2026-05-04 01:00 | 40.67672 | -117.99045 | 34890 ft | 468 kts | 41° |
| 2026-05-04 01:01 | 40.72726 | -117.93598 | 34891 ft | 470 kts | 41° |
| 2026-05-04 01:01 | 40.77778 | -117.88142 | 34891 ft | 471 kts | 41° |
| 2026-05-04 01:02 | 40.82858 | -117.82645 | 34890 ft | 471 kts | 41° |
| 2026-05-04 01:02 | 40.87934 | -117.77140 | 34890 ft | 472 kts | 41° |
| 2026-05-04 01:03 | 40.93000 | -117.71635 | 34890 ft | 472 kts | 41° |
| 2026-05-04 01:03 | 40.98083 | -117.66100 | 34891 ft | 473 kts | 41° |
| 2026-05-04 01:04 | 41.03167 | -117.60553 | 34891 ft | 474 kts | 41° |
| 2026-05-04 01:04 | 41.08247 | -117.54999 | 34891 ft | 474 kts | 41° |
| 2026-05-04 01:05 | 41.13332 | -117.49427 | 34891 ft | 475 kts | 41° |
| 2026-05-04 01:05 | 41.18434 | -117.43825 | 34891 ft | 475 kts | 41° |
| 2026-05-04 01:06 | 41.23518 | -117.38232 | 34892 ft | 475 kts | 41° |
| 2026-05-04 01:06 | 41.28619 | -117.32607 | 34894 ft | 476 kts | 41° |
| 2026-05-04 01:07 | 41.33713 | -117.26979 | 34892 ft | 476 kts | 41° |
| 2026-05-04 01:07 | 41.38808 | -117.21339 | 34892 ft | 476 kts | 41° |
| 2026-05-04 01:08 | 41.43902 | -117.15686 | 34890 ft | 477 kts | 41° |
| 2026-05-04 01:08 | 41.49001 | -117.10017 | 34887 ft | 477 kts | 41° |
| 2026-05-04 01:09 | 41.54090 | -117.04347 | 34886 ft | 477 kts | 41° |
| 2026-05-04 01:09 | 41.59189 | -116.98653 | 34886 ft | 478 kts | 40° |
| 2026-05-04 01:10 | 41.64289 | -116.92946 | 34886 ft | 478 kts | 40° |
| 2026-05-04 01:10 | 41.69390 | -116.87226 | 34886 ft | 478 kts | 40° |
| 2026-05-04 01:11 | 41.74444 | -116.81546 | 34895 ft | 479 kts | 40° |
| 2026-05-04 01:11 | 41.79549 | -116.75798 | 34894 ft | 479 kts | 40° |
| 2026-05-04 01:12 | 41.84650 | -116.70040 | 34893 ft | 479 kts | 40° |
| 2026-05-04 01:12 | 41.89759 | -116.64261 | 34892 ft | 480 kts | 40° |
| 2026-05-04 01:13 | 41.94862 | -116.58477 | 34889 ft | 480 kts | 40° |
| 2026-05-04 01:13 | 41.99963 | -116.52683 | 34887 ft | 480 kts | 40° |
| 2026-05-04 01:14 | 42.05066 | -116.46873 | 34886 ft | 480 kts | 40° |
| 2026-05-04 01:14 | 42.10168 | -116.41053 | 34873 ft | 481 kts | 40° |
| 2026-05-04 01:15 | 42.15270 | -116.35219 | 34867 ft | 481 kts | 40° |
| 2026-05-04 01:15 | 42.20377 | -116.29366 | 34864 ft | 481 kts | 40° |
| 2026-05-04 01:16 | 42.25474 | -116.23512 | 34861 ft | 481 kts | 40° |
| 2026-05-04 01:16 | 42.30569 | -116.17648 | 34859 ft | 481 kts | 40° |
| 2026-05-04 01:17 | 42.35665 | -116.11770 | 34856 ft | 481 kts | 40° |
| 2026-05-04 01:17 | 42.40759 | -116.05881 | 34854 ft | 481 kts | 40° |
| 2026-05-04 01:18 | 42.45839 | -115.99995 | 34851 ft | 481 kts | 40° |
| 2026-05-04 01:18 | 42.50061 | -115.95093 | 34849 ft | 481 kts | 40° |
| 2026-05-04 01:19 | 42.55144 | -115.89179 | 34849 ft | 481 kts | 40° |
| 2026-05-04 01:19 | 42.60221 | -115.83260 | 34855 ft | 480 kts | 40° |
| 2026-05-04 01:20 | 42.65287 | -115.77340 | 34857 ft | 480 kts | 40° |
| 2026-05-04 01:20 | 42.70345 | -115.71416 | 34856 ft | 479 kts | 40° |
| 2026-05-04 01:21 | 42.75399 | -115.65484 | 34855 ft | 479 kts | 40° |
| 2026-05-04 01:21 | 42.80441 | -115.59552 | 34854 ft | 479 kts | 40° |
| 2026-05-04 01:22 | 42.85443 | -115.53655 | 34855 ft | 479 kts | 40° |
| 2026-05-04 01:22 | 42.90469 | -115.47716 | 34857 ft | 478 kts | 40° |
| 2026-05-04 01:23 | 42.95490 | -115.41769 | 34865 ft | 478 kts | 40° |
| 2026-05-04 01:23 | 43.00539 | -115.35776 | 34870 ft | 477 kts | 40° |
| 2026-05-04 01:24 | 43.05510 | -115.29862 | 34873 ft | 477 kts | 40° |
| 2026-05-04 01:24 | 43.10515 | -115.23894 | 34878 ft | 477 kts | 40° |
| 2026-05-04 01:25 | 43.15512 | -115.17923 | 34883 ft | 477 kts | 40° |
| 2026-05-04 01:25 | 43.20506 | -115.11941 | 34889 ft | 476 kts | 40° |
| 2026-05-04 01:26 | 43.25491 | -115.05957 | 34894 ft | 477 kts | 40° |
| 2026-05-04 01:26 | 43.30475 | -114.99960 | 34902 ft | 476 kts | 40° |
| 2026-05-04 01:27 | 43.35458 | -114.93951 | 34909 ft | 476 kts | 40° |
| 2026-05-04 01:27 | 43.40429 | -114.87943 | 34939 ft | 476 kts | 41° |
| 2026-05-04 01:28 | 43.45400 | -114.81921 | 34951 ft | 476 kts | 40° |
| 2026-05-04 01:28 | 43.50370 | -114.75887 | 34961 ft | 476 kts | 40° |
| 2026-05-04 01:29 | 43.55333 | -114.69846 | 34976 ft | 476 kts | 40° |
| 2026-05-04 01:29 | 43.60284 | -114.63808 | 34980 ft | 475 kts | 40° |
| 2026-05-04 01:30 | 43.65237 | -114.57753 | 34983 ft | 475 kts | 40° |
| 2026-05-04 01:30 | 43.70182 | -114.51694 | 34984 ft | 475 kts | 41° |
| 2026-05-04 01:31 | 43.75128 | -114.45620 | 34985 ft | 475 kts | 41° |
| 2026-05-04 01:31 | 43.80064 | -114.39543 | 34985 ft | 475 kts | 41° |
| 2026-05-04 01:32 | 43.84995 | -114.33459 | 34984 ft | 474 kts | 40° |
| 2026-05-04 01:32 | 43.89919 | -114.27370 | 34982 ft | 474 kts | 41° |
| 2026-05-04 01:33 | 43.94845 | -114.21263 | 34982 ft | 474 kts | 41° |
| 2026-05-04 01:33 | 43.99727 | -114.15198 | 34979 ft | 474 kts | 41° |
| 2026-05-04 01:34 | 44.04642 | -114.09078 | 34976 ft | 474 kts | 41° |
| 2026-05-04 01:34 | 44.09586 | -114.02907 | 34974 ft | 474 kts | 41° |
| 2026-05-04 01:35 | 44.14481 | -113.96782 | 34972 ft | 474 kts | 41° |
| 2026-05-04 01:35 | 44.19365 | -113.90658 | 34971 ft | 474 kts | 41° |
| 2026-05-04 01:36 | 44.24265 | -113.84498 | 34962 ft | 474 kts | 41° |
| 2026-05-04 01:36 | 44.29170 | -113.78318 | 34938 ft | 474 kts | 41° |
| 2026-05-04 01:37 | 44.34047 | -113.72160 | 34937 ft | 473 kts | 41° |
| 2026-05-04 01:37 | 44.38934 | -113.65974 | 34937 ft | 473 kts | 41° |
| 2026-05-04 01:38 | 44.43810 | -113.59787 | 34938 ft | 473 kts | 41° |
| 2026-05-04 01:38 | 44.48678 | -113.53596 | 34938 ft | 472 kts | 41° |
| 2026-05-04 01:39 | 44.53532 | -113.47408 | 34969 ft | 472 kts | 41° |
| 2026-05-04 01:39 | 44.58385 | -113.41206 | 35020 ft | 472 kts | 41° |
| 2026-05-04 01:40 | 44.63200 | -113.35040 | 35030 ft | 472 kts | 41° |
| 2026-05-04 01:40 | 44.68046 | -113.28816 | 35034 ft | 471 kts | 41° |
| 2026-05-04 01:41 | 44.72875 | -113.22604 | 35036 ft | 470 kts | 41° |
| 2026-05-04 01:41 | 44.77700 | -113.16379 | 35034 ft | 470 kts | 41° |
| 2026-05-04 01:42 | 44.82515 | -113.10153 | 35028 ft | 470 kts | 41° |
| 2026-05-04 01:42 | 44.87320 | -113.03926 | 35018 ft | 470 kts | 41° |
| 2026-05-04 01:43 | 44.92133 | -112.97673 | 35006 ft | 470 kts | 41° |
| 2026-05-04 01:43 | 44.96932 | -112.91423 | 34990 ft | 469 kts | 41° |
| 2026-05-04 01:44 | 45.01723 | -112.85175 | 34975 ft | 469 kts | 41° |
| 2026-05-04 01:44 | 45.06539 | -112.78932 | 34960 ft | 469 kts | 41° |
| 2026-05-04 01:45 | 45.11319 | -112.72648 | 34931 ft | 469 kts | 41° |
| 2026-05-04 01:45 | 45.18465 | -112.63212 | 34935 ft | 468 kts | 41° |
| 2026-05-04 01:46 | 45.23239 | -112.56902 | 34931 ft | 468 kts | 41° |
| 2026-05-04 01:46 | 45.27908 | -112.50468 | 34931 ft | 468 kts | 44° |
| 2026-05-04 01:47 | 45.32326 | -112.43674 | 34931 ft | 468 kts | 46° |
| 2026-05-04 01:47 | 45.36682 | -112.36865 | 34930 ft | 468 kts | 46° |
| 2026-05-04 01:48 | 45.41116 | -112.30008 | 34927 ft | 468 kts | 45° |
| 2026-05-04 01:48 | 45.45526 | -112.23207 | 34923 ft | 467 kts | 45° |
| 2026-05-04 01:49 | 45.49918 | -112.16469 | 34923 ft | 467 kts | 45° |
| 2026-05-04 01:49 | 45.54394 | -112.09681 | 34925 ft | 466 kts | 45° |
| 2026-05-04 01:50 | 45.58790 | -112.02950 | 34931 ft | 466 kts | 45° |
| 2026-05-04 01:50 | 45.63199 | -111.96161 | 34936 ft | 466 kts | 45° |
| 2026-05-04 01:51 | 45.67628 | -111.89315 | 34939 ft | 466 kts | 45° |
| 2026-05-04 01:51 | 45.72024 | -111.82499 | 34937 ft | 466 kts | 45° |
| 2026-05-04 01:52 | 45.76392 | -111.75710 | 34937 ft | 466 kts | 45° |
| 2026-05-04 01:52 | 45.80783 | -111.68867 | 34947 ft | 466 kts | 45° |
| 2026-05-04 01:53 | 45.85177 | -111.62003 | 34913 ft | 466 kts | 45° |
| 2026-05-04 01:53 | 45.89562 | -111.55134 | 34911 ft | 466 kts | 45° |
| 2026-05-04 01:54 | 45.93941 | -111.48259 | 34908 ft | 467 kts | 45° |
| 2026-05-04 01:54 | 45.98321 | -111.41364 | 34906 ft | 467 kts | 45° |
| 2026-05-04 01:55 | 46.02701 | -111.34450 | 34905 ft | 467 kts | 45° |
| 2026-05-04 01:55 | 46.07074 | -111.27531 | 34904 ft | 466 kts | 45° |
| 2026-05-04 01:56 | 46.11438 | -111.20610 | 34903 ft | 467 kts | 45° |
| 2026-05-04 01:56 | 46.15766 | -111.13728 | 34923 ft | 466 kts | 45° |
| 2026-05-04 01:57 | 46.20127 | -111.06776 | 34965 ft | 467 kts | 45° |
| 2026-05-04 01:57 | 46.24490 | -110.99801 | 34974 ft | 468 kts | 45° |
| 2026-05-04 01:58 | 46.28853 | -110.92810 | 34978 ft | 468 kts | 45° |
| 2026-05-04 01:58 | 46.32459 | -110.87017 | 34983 ft | 468 kts | 45° |
| 2026-05-04 01:59 | 46.37561 | -110.78801 | 34988 ft | 468 kts | 45° |
| 2026-05-04 01:59 | 46.41912 | -110.71776 | 34997 ft | 469 kts | 45° |
| 2026-05-04 02:00 | 46.46258 | -110.64738 | 34994 ft | 469 kts | 45° |
| 2026-05-04 02:00 | 46.49869 | -110.58878 | 35003 ft | 468 kts | 45° |
| 2026-05-04 02:01 | 46.54192 | -110.51845 | 35002 ft | 469 kts | 45° |
| 2026-05-04 02:01 | 46.58528 | -110.44774 | 34996 ft | 469 kts | 45° |
| 2026-05-04 02:02 | 46.62881 | -110.37655 | 34979 ft | 469 kts | 45° |
| 2026-05-04 02:02 | 46.67209 | -110.30558 | 34970 ft | 469 kts | 45° |
| 2026-05-04 02:03 | 46.71538 | -110.23443 | 34965 ft | 469 kts | 45° |
| 2026-05-04 02:03 | 46.75858 | -110.16322 | 34956 ft | 469 kts | 45° |
| 2026-05-04 02:04 | 46.80180 | -110.09180 | 34947 ft | 469 kts | 45° |
| 2026-05-04 02:04 | 46.84490 | -110.02039 | 34938 ft | 469 kts | 45° |
| 2026-05-04 02:05 | 46.88804 | -109.94872 | 34916 ft | 470 kts | 45° |
| 2026-05-04 02:05 | 46.93112 | -109.87696 | 34834 ft | 470 kts | 45° |
| 2026-05-04 02:06 | 46.97425 | -109.80493 | 34825 ft | 469 kts | 45° |
| 2026-05-04 02:06 | 47.01732 | -109.73281 | 34817 ft | 470 kts | 45° |
| 2026-05-04 02:07 | 47.06029 | -109.66066 | 34812 ft | 470 kts | 45° |
| 2026-05-04 02:07 | 47.10326 | -109.58832 | 34810 ft | 470 kts | 45° |
| 2026-05-04 02:08 | 47.14619 | -109.51585 | 34809 ft | 470 kts | 45° |
| 2026-05-04 02:08 | 47.18939 | -109.44359 | 34807 ft | 470 kts | 45° |
| 2026-05-04 02:09 | 47.23202 | -109.37116 | 34812 ft | 470 kts | 45° |
| 2026-05-04 02:09 | 47.27459 | -109.29837 | 34810 ft | 470 kts | 45° |
| 2026-05-04 02:10 | 47.31735 | -109.22512 | 34807 ft | 470 kts | 45° |
| 2026-05-04 02:10 | 47.35874 | -109.15045 | 34804 ft | 473 kts | 51° |
| 2026-05-04 02:11 | 47.39278 | -109.06693 | 34802 ft | 477 kts | 57° |
| 2026-05-04 02:11 | 47.42275 | -108.97925 | 34798 ft | 480 kts | 59° |
| 2026-05-04 02:12 | 47.45241 | -108.89072 | 34795 ft | 481 kts | 58° |
| 2026-05-04 02:12 | 47.48267 | -108.80247 | 34792 ft | 481 kts | 58° |
| 2026-05-04 02:13 | 47.51304 | -108.71450 | 34784 ft | 481 kts | 58° |
| 2026-05-04 02:13 | 47.54410 | -108.62659 | 34770 ft | 481 kts | 57° |
| 2026-05-04 02:14 | 47.57522 | -108.53816 | 34764 ft | 482 kts | 57° |
| 2026-05-04 02:14 | 47.60593 | -108.44984 | 34762 ft | 483 kts | 57° |
| 2026-05-04 02:15 | 47.63642 | -108.36159 | 34760 ft | 483 kts | 57° |
| 2026-05-04 02:15 | 47.66701 | -108.27268 | 34758 ft | 484 kts | 57° |
| 2026-05-04 02:16 | 47.69753 | -108.18366 | 34757 ft | 485 kts | 57° |
| 2026-05-04 02:16 | 47.72801 | -108.09443 | 34755 ft | 485 kts | 57° |
| 2026-05-04 02:17 | 47.75844 | -108.00501 | 34754 ft | 486 kts | 57° |
| 2026-05-04 02:17 | 47.78891 | -107.91518 | 34753 ft | 486 kts | 57° |
| 2026-05-04 02:18 | 47.81917 | -107.82567 | 34739 ft | 486 kts | 57° |
| 2026-05-04 02:18 | 47.84946 | -107.73576 | 34737 ft | 486 kts | 57° |
| 2026-05-04 02:19 | 47.87972 | -107.64560 | 34736 ft | 486 kts | 57° |
| 2026-05-04 02:19 | 47.90978 | -107.55571 | 34731 ft | 486 kts | 57° |
| 2026-05-04 02:20 | 47.93991 | -107.46535 | 34733 ft | 486 kts | 57° |
| 2026-05-04 02:20 | 47.96989 | -107.37512 | 34731 ft | 486 kts | 58° |
| 2026-05-04 02:21 | 47.99986 | -107.28458 | 34728 ft | 486 kts | 58° |
| 2026-05-04 02:21 | 48.02975 | -107.19392 | 34723 ft | 489 kts | 57° |
| 2026-05-04 02:22 | 48.05987 | -107.10229 | 34719 ft | 492 kts | 57° |
| 2026-05-04 02:22 | 48.09023 | -107.01069 | 34714 ft | 492 kts | 56° |
| 2026-05-04 02:23 | 48.12034 | -106.91894 | 34707 ft | 492 kts | 57° |
| 2026-05-04 02:23 | 48.15020 | -106.82648 | 34704 ft | 493 kts | 57° |
| 2026-05-04 02:24 | 48.17999 | -106.73389 | 34701 ft | 494 kts | 57° |
| 2026-05-04 02:24 | 48.20964 | -106.64174 | 34700 ft | 494 kts | 57° |
| 2026-05-04 02:25 | 48.24037 | -106.54974 | 34700 ft | 492 kts | 55° |
| 2026-05-04 02:25 | 48.27262 | -106.45934 | 34699 ft | 491 kts | 55° |
| 2026-05-04 02:26 | 48.30469 | -106.36816 | 34697 ft | 491 kts | 55° |
| 2026-05-04 02:26 | 48.33634 | -106.27715 | 34695 ft | 491 kts | 55° |
| 2026-05-04 02:27 | 48.36780 | -106.18607 | 34691 ft | 491 kts | 55° |
| 2026-05-04 02:27 | 48.39945 | -106.09614 | 34686 ft | 491 kts | 54° |
| 2026-05-04 02:28 | 48.43173 | -106.00435 | 34687 ft | 491 kts | 55° |
| 2026-05-04 02:28 | 48.46316 | -105.91374 | 34686 ft | 492 kts | 55° |
| 2026-05-04 02:29 | 48.49476 | -105.82195 | 34686 ft | 494 kts | 55° |
| 2026-05-04 02:29 | 48.52636 | -105.72976 | 34686 ft | 495 kts | 55° |
| 2026-05-04 02:30 | 48.55786 | -105.63747 | 34686 ft | 495 kts | 55° |
| 2026-05-04 02:30 | 48.58930 | -105.54499 | 34686 ft | 496 kts | 55° |
| 2026-05-04 02:31 | 48.62074 | -105.45217 | 34687 ft | 496 kts | 55° |
| 2026-05-04 02:31 | 48.65213 | -105.35919 | 34686 ft | 497 kts | 55° |
| 2026-05-04 02:32 | 48.68354 | -105.26580 | 34686 ft | 498 kts | 55° |
| 2026-05-04 02:32 | 48.71487 | -105.17230 | 34684 ft | 499 kts | 55° |
| 2026-05-04 02:33 | 48.74621 | -105.07843 | 34680 ft | 499 kts | 55° |
| 2026-05-04 02:33 | 48.77750 | -104.98438 | 34675 ft | 501 kts | 55° |
| 2026-05-04 02:34 | 48.80876 | -104.89003 | 34670 ft | 501 kts | 55° |
| 2026-05-04 02:34 | 48.84001 | -104.79540 | 34665 ft | 502 kts | 55° |
| 2026-05-04 02:35 | 48.87117 | -104.70067 | 34662 ft | 502 kts | 55° |
| 2026-05-04 02:35 | 48.90207 | -104.60638 | 34661 ft | 503 kts | 55° |
| 2026-05-04 02:36 | 48.93325 | -104.51088 | 34658 ft | 503 kts | 55° |
| 2026-05-04 02:36 | 48.96440 | -104.41512 | 34657 ft | 505 kts | 55° |
| 2026-05-04 02:37 | 48.99544 | -104.31933 | 34654 ft | 505 kts | 56° |
| 2026-05-04 02:37 | 49.02646 | -104.22323 | 34650 ft | 506 kts | 56° |
| 2026-05-04 02:38 | 49.05748 | -104.12677 | 34649 ft | 507 kts | 56° |
| 2026-05-04 02:38 | 49.08846 | -104.03005 | 34646 ft | 507 kts | 56° |
| 2026-05-04 02:39 | 49.11931 | -103.93338 | 34643 ft | 508 kts | 56° |
| 2026-05-04 02:39 | 49.15022 | -103.83611 | 34639 ft | 509 kts | 56° |
| 2026-05-04 02:40 | 49.18115 | -103.73844 | 34637 ft | 510 kts | 56° |
| 2026-05-04 02:40 | 49.21200 | -103.64061 | 34630 ft | 511 kts | 56° |
| 2026-05-04 02:41 | 49.23758 | -103.55920 | 34634 ft | 511 kts | 56° |
| 2026-05-04 02:41 | 49.26831 | -103.46108 | 34636 ft | 511 kts | 56° |
| 2026-05-04 02:42 | 49.29901 | -103.36264 | 34636 ft | 511 kts | 56° |
| 2026-05-04 02:42 | 49.32956 | -103.26431 | 34618 ft | 512 kts | 56° |
| 2026-05-04 02:43 | 49.36013 | -103.16549 | 34616 ft | 513 kts | 56° |
| 2026-05-04 02:43 | 49.39046 | -103.06707 | 34615 ft | 513 kts | 56° |
| 2026-05-04 02:44 | 49.42105 | -102.96742 | 34614 ft | 513 kts | 56° |
| 2026-05-04 02:44 | 49.45125 | -102.86865 | 34610 ft | 514 kts | 56° |
| 2026-05-04 02:45 | 49.48158 | -102.76901 | 34610 ft | 514 kts | 56° |
| 2026-05-04 02:45 | 49.51176 | -102.66950 | 34610 ft | 515 kts | 56° |
| 2026-05-04 02:46 | 49.54203 | -102.56928 | 34610 ft | 516 kts | 56° |
| 2026-05-04 02:46 | 49.57221 | -102.46891 | 34610 ft | 517 kts | 56° |
| 2026-05-04 02:47 | 49.60246 | -102.36792 | 34888 ft | 520 kts | 57° |
| 2026-05-04 02:47 | 49.61761 | -102.31720 | 35105 ft | 520 kts | 57° |
| 2026-05-04 02:47 | 49.63268 | -102.26665 | 35441 ft | 518 kts | 57° |
| 2026-05-04 02:48 | 49.64770 | -102.21612 | 35719 ft | 517 kts | 57° |
| 2026-05-04 02:48 | 49.66270 | -102.16559 | 35954 ft | 517 kts | 57° |
| 2026-05-04 02:48 | 49.67766 | -102.11505 | 36189 ft | 517 kts | 57° |
| 2026-05-04 02:48 | 49.69253 | -102.06472 | 36409 ft | 517 kts | 57° |
| 2026-05-04 02:49 | 49.70752 | -102.01395 | 36516 ft | 519 kts | 57° |
| 2026-05-04 02:49 | 49.72245 | -101.96322 | 36563 ft | 518 kts | 57° |
| 2026-05-04 02:49 | 49.75217 | -101.86185 | 36552 ft | 517 kts | 58° |
| 2026-05-04 02:50 | 49.78183 | -101.76032 | 36546 ft | 517 kts | 58° |
| 2026-05-04 02:50 | 49.81132 | -101.65896 | 36541 ft | 517 kts | 58° |
| 2026-05-04 02:51 | 49.84077 | -101.55728 | 36536 ft | 517 kts | 58° |
| 2026-05-04 02:51 | 49.87012 | -101.45557 | 36531 ft | 516 kts | 58° |
| 2026-05-04 02:52 | 49.89980 | -101.35422 | 36537 ft | 516 kts | 58° |
| 2026-05-04 02:52 | 49.92881 | -101.25230 | 36510 ft | 516 kts | 59° |
| 2026-05-04 02:53 | 49.95761 | -101.15033 | 36485 ft | 516 kts | 59° |
| 2026-05-04 02:53 | 49.98639 | -101.04830 | 36484 ft | 516 kts | 59° |
| 2026-05-04 02:54 | 50.01431 | -100.94620 | 36484 ft | 517 kts | 62° |
| 2026-05-04 02:54 | 50.03917 | -100.84002 | 36483 ft | 521 kts | 64° |
| 2026-05-04 02:55 | 50.07518 | -100.68045 | 36484 ft | 521 kts | 64° |
| 2026-05-04 02:56 | 50.09936 | -100.57483 | 36483 ft | 521 kts | 64° |
| 2026-05-04 02:56 | 50.12380 | -100.46865 | 36484 ft | 520 kts | 63° |
| 2026-05-04 02:57 | 50.14907 | -100.36299 | 36486 ft | 520 kts | 63° |
| 2026-05-04 02:57 | 50.17387 | -100.25707 | 36487 ft | 521 kts | 64° |
| 2026-05-04 02:58 | 50.19841 | -100.15075 | 36487 ft | 521 kts | 64° |
| 2026-05-04 02:58 | 50.22282 | -100.04415 | 36486 ft | 521 kts | 64° |
| 2026-05-04 02:59 | 50.24707 | -99.93757 | 36483 ft | 521 kts | 64° |
| 2026-05-04 02:59 | 50.27121 | -99.83090 | 36483 ft | 521 kts | 64° |
| 2026-05-04 03:00 | 50.29528 | -99.72402 | 36481 ft | 521 kts | 64° |
| 2026-05-04 03:00 | 50.31921 | -99.61716 | 36478 ft | 521 kts | 65° |
| 2026-05-04 03:01 | 50.34308 | -99.51005 | 36471 ft | 521 kts | 65° |
| 2026-05-04 03:01 | 50.36681 | -99.40296 | 36467 ft | 521 kts | 65° |
| 2026-05-04 03:02 | 50.39054 | -99.29541 | 36463 ft | 521 kts | 65° |
| 2026-05-04 03:02 | 50.41412 | -99.18794 | 36460 ft | 521 kts | 65° |
| 2026-05-04 03:03 | 50.43758 | -99.08051 | 36458 ft | 521 kts | 65° |
| 2026-05-04 03:03 | 50.46099 | -98.97270 | 36456 ft | 522 kts | 66° |
| 2026-05-04 03:04 | 50.48433 | -98.86464 | 36445 ft | 523 kts | 66° |
| 2026-05-04 03:04 | 50.50757 | -98.75644 | 36439 ft | 522 kts | 66° |
| 2026-05-04 03:05 | 50.53066 | -98.64843 | 36436 ft | 522 kts | 66° |
| 2026-05-04 03:05 | 50.55370 | -98.54006 | 36433 ft | 522 kts | 66° |
| 2026-05-04 03:06 | 50.57662 | -98.43167 | 36429 ft | 522 kts | 66° |
| 2026-05-04 03:06 | 50.59942 | -98.32327 | 36426 ft | 522 kts | 66° |
| 2026-05-04 03:07 | 50.62216 | -98.21458 | 36424 ft | 522 kts | 66° |
| 2026-05-04 03:07 | 50.64477 | -98.10588 | 36407 ft | 522 kts | 66° |
| 2026-05-04 03:08 | 50.66729 | -97.99717 | 36408 ft | 525 kts | 68° |
| 2026-05-04 03:08 | 50.69005 | -97.88661 | 36409 ft | 532 kts | 68° |
| 2026-05-04 03:09 | 50.71277 | -97.77552 | 36397 ft | 532 kts | 69° |
| 2026-05-04 03:09 | 50.73534 | -97.66457 | 36392 ft | 530 kts | 69° |
| 2026-05-04 03:10 | 50.75776 | -97.55376 | 36391 ft | 529 kts | 69° |
| 2026-05-04 03:10 | 50.78007 | -97.44290 | 36390 ft | 529 kts | 69° |
| 2026-05-04 03:11 | 50.80222 | -97.33218 | 36389 ft | 529 kts | 69° |
| 2026-05-04 03:11 | 50.82413 | -97.22203 | 36387 ft | 528 kts | 69° |
| 2026-05-04 03:12 | 50.84608 | -97.11108 | 36381 ft | 528 kts | 69° |
| 2026-05-04 03:12 | 50.86789 | -97.00021 | 36379 ft | 528 kts | 69° |
| 2026-05-04 03:13 | 50.88959 | -96.88925 | 36378 ft | 527 kts | 69° |
| 2026-05-04 03:13 | 50.91115 | -96.77833 | 36373 ft | 527 kts | 69° |
| 2026-05-04 03:14 | 50.93265 | -96.66712 | 36369 ft | 527 kts | 70° |
| 2026-05-04 03:14 | 50.95404 | -96.55580 | 36366 ft | 527 kts | 70° |
| 2026-05-04 03:15 | 50.97527 | -96.44469 | 36363 ft | 527 kts | 70° |
| 2026-05-04 03:15 | 50.99643 | -96.33326 | 36359 ft | 526 kts | 70° |
| 2026-05-04 03:16 | 51.01747 | -96.22180 | 36347 ft | 527 kts | 70° |
| 2026-05-04 03:16 | 51.03837 | -96.11047 | 36342 ft | 526 kts | 70° |
| 2026-05-04 03:17 | 51.05906 | -95.99956 | 36338 ft | 526 kts | 70° |
| 2026-05-04 03:17 | 51.07974 | -95.88806 | 36340 ft | 525 kts | 70° |
| 2026-05-04 03:18 | 51.10024 | -95.77686 | 36375 ft | 524 kts | 71° |
| 2026-05-04 03:18 | 51.12064 | -95.66544 | 36381 ft | 524 kts | 71° |
| 2026-05-04 03:19 | 51.14093 | -95.55409 | 36336 ft | 524 kts | 71° |
| 2026-05-04 03:19 | 51.16113 | -95.44247 | 36322 ft | 523 kts | 71° |
| 2026-05-04 03:20 | 51.18117 | -95.33106 | 36303 ft | 523 kts | 71° |
| 2026-05-04 03:20 | 51.20110 | -95.21959 | 36286 ft | 523 kts | 71° |
| 2026-05-04 03:21 | 51.22093 | -95.10796 | 36279 ft | 523 kts | 71° |
| 2026-05-04 03:21 | 51.24066 | -94.99640 | 36279 ft | 522 kts | 71° |
| 2026-05-04 03:22 | 51.26026 | -94.88469 | 36281 ft | 523 kts | 72° |
| 2026-05-04 03:22 | 51.27976 | -94.77287 | 36272 ft | 522 kts | 72° |
| 2026-05-04 03:23 | 51.29912 | -94.66103 | 36271 ft | 522 kts | 72° |
| 2026-05-04 03:23 | 51.31833 | -94.54942 | 36271 ft | 521 kts | 72° |
| 2026-05-04 03:24 | 51.33420 | -94.45657 | 36272 ft | 520 kts | 72° |
| 2026-05-04 03:24 | 51.35323 | -94.34492 | 36269 ft | 520 kts | 72° |
| 2026-05-04 03:25 | 51.37208 | -94.23333 | 36267 ft | 519 kts | 73° |
| 2026-05-04 03:25 | 51.39084 | -94.12162 | 36263 ft | 519 kts | 73° |
| 2026-05-04 03:26 | 51.40949 | -94.01015 | 36262 ft | 518 kts | 73° |
| 2026-05-04 03:26 | 51.42792 | -93.89852 | 36266 ft | 519 kts | 73° |
| 2026-05-04 03:27 | 51.44631 | -93.78665 | 36254 ft | 519 kts | 73° |
| 2026-05-04 03:27 | 51.46465 | -93.67480 | 36264 ft | 518 kts | 73° |
| 2026-05-04 03:28 | 51.48277 | -93.56366 | 36267 ft | 517 kts | 73° |
| 2026-05-04 03:28 | 51.50088 | -93.45169 | 36266 ft | 518 kts | 73° |
| 2026-05-04 03:29 | 51.51886 | -93.33954 | 36264 ft | 518 kts | 73° |
| 2026-05-04 03:29 | 51.53671 | -93.22744 | 36269 ft | 519 kts | 73° |
| 2026-05-04 03:30 | 51.55454 | -93.11481 | 36271 ft | 519 kts | 73° |
| 2026-05-04 03:30 | 51.57224 | -93.00240 | 36270 ft | 519 kts | 74° |
| 2026-05-04 03:31 | 51.58984 | -92.88965 | 36273 ft | 520 kts | 74° |
| 2026-05-04 03:31 | 51.60730 | -92.77694 | 36281 ft | 520 kts | 74° |
| 2026-05-04 03:32 | 51.62460 | -92.66467 | 36278 ft | 519 kts | 74° |
| 2026-05-04 03:32 | 51.64183 | -92.55186 | 36284 ft | 520 kts | 74° |
| 2026-05-04 03:33 | 51.65897 | -92.43880 | 36288 ft | 520 kts | 75° |
| 2026-05-04 03:33 | 51.67608 | -92.32557 | 36284 ft | 519 kts | 75° |
| 2026-05-04 03:34 | 51.69311 | -92.21173 | 36288 ft | 519 kts | 75° |
| 2026-05-04 03:34 | 51.70980 | -92.09934 | 36291 ft | 519 kts | 75° |
| 2026-05-04 03:35 | 51.72649 | -91.98605 | 36291 ft | 519 kts | 75° |
| 2026-05-04 03:35 | 51.74309 | -91.87262 | 36297 ft | 519 kts | 75° |
| 2026-05-04 03:36 | 51.75958 | -91.75932 | 36343 ft | 519 kts | 75° |
| 2026-05-04 03:36 | 51.77597 | -91.64590 | 36372 ft | 519 kts | 75° |
| 2026-05-04 03:37 | 51.79224 | -91.53230 | 36377 ft | 519 kts | 75° |
| 2026-05-04 03:37 | 51.80838 | -91.41873 | 36380 ft | 519 kts | 75° |
| 2026-05-04 03:38 | 51.82441 | -91.30513 | 36381 ft | 519 kts | 75° |
| 2026-05-04 03:38 | 51.84038 | -91.19106 | 36381 ft | 519 kts | 75° |
| 2026-05-04 03:39 | 51.85622 | -91.07710 | 36382 ft | 519 kts | 75° |
| 2026-05-04 03:39 | 51.87193 | -90.96319 | 36383 ft | 519 kts | 75° |
| 2026-05-04 03:40 | 51.88755 | -90.84907 | 36384 ft | 519 kts | 76° |
| 2026-05-04 03:40 | 51.90304 | -90.73505 | 36384 ft | 519 kts | 76° |
| 2026-05-04 03:41 | 51.91841 | -90.62100 | 36385 ft | 518 kts | 76° |
| 2026-05-04 03:41 | 51.93371 | -90.50676 | 36386 ft | 518 kts | 75° |
| 2026-05-04 03:42 | 51.94945 | -90.39274 | 36386 ft | 519 kts | 76° |
| 2026-05-04 03:42 | 51.96433 | -90.27838 | 36387 ft | 518 kts | 76° |
| 2026-05-04 03:43 | 51.97902 | -90.16387 | 36389 ft | 518 kts | 76° |
| 2026-05-04 03:43 | 51.99359 | -90.05025 | 36392 ft | 518 kts | 76° |
| 2026-05-04 03:44 | 52.01565 | -89.93957 | 36396 ft | 516 kts | 65° |
| 2026-05-04 03:44 | 52.04517 | -89.83347 | 36403 ft | 514 kts | 61° |
| 2026-05-04 03:45 | 52.07644 | -89.72906 | 36409 ft | 513 kts | 62° |
| 2026-05-04 03:45 | 52.10681 | -89.62410 | 36411 ft | 512 kts | 62° |
| 2026-05-04 03:46 | 52.13658 | -89.51894 | 36414 ft | 511 kts | 63° |
| 2026-05-04 03:46 | 52.16674 | -89.41421 | 36417 ft | 511 kts | 62° |
| 2026-05-04 03:47 | 52.19695 | -89.30948 | 36419 ft | 509 kts | 62° |
| 2026-05-04 03:47 | 52.22658 | -89.20486 | 36422 ft | 508 kts | 63° |
| 2026-05-04 03:48 | 52.25590 | -89.10031 | 36425 ft | 507 kts | 63° |
| 2026-05-04 03:48 | 52.28509 | -88.99556 | 36427 ft | 506 kts | 63° |
| 2026-05-04 03:49 | 52.31412 | -88.89092 | 36430 ft | 505 kts | 63° |
| 2026-05-04 03:49 | 52.34296 | -88.78642 | 36432 ft | 504 kts | 63° |
| 2026-05-04 03:50 | 52.37170 | -88.68181 | 36434 ft | 503 kts | 63° |
| 2026-05-04 03:50 | 52.40024 | -88.57747 | 36435 ft | 502 kts | 63° |
| 2026-05-04 03:51 | 52.42870 | -88.47291 | 36436 ft | 502 kts | 63° |
| 2026-05-04 03:51 | 52.45700 | -88.36850 | 36437 ft | 502 kts | 64° |
| 2026-05-04 03:52 | 52.48526 | -88.26375 | 36438 ft | 502 kts | 64° |
| 2026-05-04 03:52 | 52.51343 | -88.15886 | 36438 ft | 501 kts | 64° |
| 2026-05-04 03:53 | 52.54147 | -88.05400 | 36439 ft | 501 kts | 64° |
| 2026-05-04 03:53 | 52.56939 | -87.94906 | 36438 ft | 501 kts | 64° |
| 2026-05-04 03:54 | 52.59721 | -87.84408 | 36441 ft | 500 kts | 64° |
| 2026-05-04 03:54 | 52.62484 | -87.73926 | 36442 ft | 500 kts | 64° |
| 2026-05-04 03:55 | 52.65103 | -87.63949 | 36443 ft | 500 kts | 64° |
| 2026-05-04 03:55 | 52.67851 | -87.53432 | 36444 ft | 500 kts | 64° |
| 2026-05-04 03:56 | 52.70573 | -87.42967 | 36445 ft | 500 kts | 65° |
| 2026-05-04 03:56 | 52.73322 | -87.32351 | 36446 ft | 500 kts | 65° |
| 2026-05-04 03:57 | 52.76039 | -87.21804 | 36447 ft | 499 kts | 65° |
| 2026-05-04 03:57 | 52.78748 | -87.11243 | 36448 ft | 499 kts | 65° |
| 2026-05-04 03:58 | 52.82795 | -86.95369 | 36452 ft | 499 kts | 65° |
| 2026-05-04 03:58 | 52.85480 | -86.84777 | 36454 ft | 499 kts | 65° |
| 2026-05-04 03:59 | 52.88153 | -86.74178 | 36456 ft | 499 kts | 65° |
| 2026-05-04 03:59 | 52.90810 | -86.63595 | 36475 ft | 499 kts | 65° |
| 2026-05-04 04:00 | 52.93471 | -86.52946 | 36480 ft | 499 kts | 66° |
| 2026-05-04 04:00 | 52.96095 | -86.42391 | 36484 ft | 499 kts | 66° |
| 2026-05-04 04:01 | 52.98729 | -86.31751 | 36488 ft | 499 kts | 66° |
| 2026-05-04 04:01 | 53.01372 | -86.21015 | 36498 ft | 498 kts | 66° |
| 2026-05-04 04:02 | 53.03985 | -86.10354 | 36503 ft | 498 kts | 66° |
| 2026-05-04 04:02 | 53.06588 | -85.99681 | 36507 ft | 498 kts | 66° |
| 2026-05-04 04:03 | 53.09184 | -85.88987 | 36511 ft | 498 kts | 66° |
| 2026-05-04 04:03 | 53.11766 | -85.78295 | 36515 ft | 498 kts | 67° |
| 2026-05-04 04:04 | 53.14336 | -85.67602 | 36519 ft | 498 kts | 67° |
| 2026-05-04 04:04 | 53.16902 | -85.56870 | 36522 ft | 498 kts | 67° |
| 2026-05-04 04:05 | 53.19044 | -85.47869 | 36524 ft | 498 kts | 67° |
| 2026-05-04 04:05 | 53.21576 | -85.37185 | 36527 ft | 498 kts | 67° |
| 2026-05-04 04:06 | 53.24114 | -85.26422 | 36530 ft | 498 kts | 67° |
| 2026-05-04 04:06 | 53.26640 | -85.15657 | 36533 ft | 498 kts | 68° |
| 2026-05-04 04:07 | 53.29156 | -85.04876 | 36536 ft | 498 kts | 68° |
| 2026-05-04 04:07 | 53.31664 | -84.94081 | 36538 ft | 498 kts | 68° |
| 2026-05-04 04:08 | 53.34163 | -84.83264 | 36540 ft | 498 kts | 68° |
| 2026-05-04 04:08 | 53.36647 | -84.72461 | 36542 ft | 497 kts | 68° |
| 2026-05-04 04:09 | 53.39123 | -84.61636 | 36544 ft | 497 kts | 68° |
| 2026-05-04 04:09 | 53.41590 | -84.50796 | 36545 ft | 497 kts | 68° |
| 2026-05-04 04:10 | 53.44042 | -84.39964 | 36547 ft | 497 kts | 68° |
| 2026-05-04 04:10 | 53.46487 | -84.29110 | 36549 ft | 497 kts | 69° |
| 2026-05-04 04:11 | 53.48919 | -84.18255 | 36550 ft | 497 kts | 69° |
| 2026-05-04 04:11 | 53.51347 | -84.07363 | 36551 ft | 497 kts | 69° |
| 2026-05-04 04:12 | 53.53758 | -83.96490 | 36552 ft | 496 kts | 69° |
| 2026-05-04 04:12 | 53.56161 | -83.85598 | 36553 ft | 497 kts | 69° |
| 2026-05-04 04:13 | 53.58552 | -83.74701 | 36554 ft | 497 kts | 69° |
| 2026-05-04 04:13 | 53.60938 | -83.63769 | 36555 ft | 497 kts | 69° |
| 2026-05-04 04:14 | 53.63311 | -83.52840 | 36556 ft | 497 kts | 69° |
| 2026-05-04 04:14 | 53.65678 | -83.41878 | 36557 ft | 497 kts | 69° |
| 2026-05-04 04:15 | 53.68031 | -83.30925 | 36557 ft | 497 kts | 69° |
| 2026-05-04 04:15 | 53.70378 | -83.19938 | 36558 ft | 497 kts | 70° |
| 2026-05-04 04:16 | 53.72715 | -83.08944 | 36559 ft | 497 kts | 70° |
| 2026-05-04 04:16 | 53.75040 | -82.97941 | 36559 ft | 498 kts | 70° |
| 2026-05-04 04:17 | 53.77343 | -82.86985 | 36559 ft | 498 kts | 70° |
| 2026-05-04 04:17 | 53.79649 | -82.75953 | 36555 ft | 498 kts | 70° |
| 2026-05-04 04:18 | 53.81950 | -82.64888 | 36543 ft | 498 kts | 70° |
| 2026-05-04 04:18 | 53.84239 | -82.53818 | 36543 ft | 498 kts | 70° |
| 2026-05-04 04:19 | 53.86518 | -82.42733 | 36548 ft | 498 kts | 70° |
| 2026-05-04 04:19 | 53.88786 | -82.31640 | 36550 ft | 498 kts | 70° |
| 2026-05-04 04:20 | 53.91047 | -82.20521 | 36550 ft | 499 kts | 71° |
| 2026-05-04 04:20 | 53.93298 | -82.09389 | 36551 ft | 499 kts | 71° |
| 2026-05-04 04:21 | 53.95537 | -81.98251 | 36553 ft | 499 kts | 71° |
| 2026-05-04 04:21 | 53.97768 | -81.87093 | 36554 ft | 499 kts | 71° |
| 2026-05-04 04:22 | 53.99984 | -81.75945 | 36555 ft | 499 kts | 71° |
| 2026-05-04 04:22 | 54.02195 | -81.64757 | 36557 ft | 499 kts | 71° |
| 2026-05-04 04:23 | 54.04393 | -81.53571 | 36558 ft | 499 kts | 71° |
| 2026-05-04 04:23 | 54.06583 | -81.42361 | 36560 ft | 499 kts | 71° |
| 2026-05-04 04:24 | 54.08759 | -81.31157 | 36562 ft | 498 kts | 71° |
| 2026-05-04 04:24 | 54.10922 | -81.19955 | 36564 ft | 498 kts | 72° |
| 2026-05-04 04:25 | 54.13076 | -81.08733 | 36566 ft | 498 kts | 72° |
| 2026-05-04 04:25 | 54.15224 | -80.97480 | 36568 ft | 498 kts | 72° |
| 2026-05-04 04:26 | 54.17359 | -80.86225 | 36571 ft | 498 kts | 72° |
| 2026-05-04 04:26 | 54.19484 | -80.74958 | 36574 ft | 498 kts | 72° |
| 2026-05-04 04:27 | 54.21585 | -80.63749 | 36577 ft | 499 kts | 72° |
| 2026-05-04 04:27 | 54.23709 | -80.52362 | 36601 ft | 499 kts | 72° |
| 2026-05-04 04:28 | 54.25871 | -80.41056 | 36606 ft | 499 kts | 72° |
| 2026-05-04 04:28 | 54.27928 | -80.29795 | 36609 ft | 499 kts | 73° |
| 2026-05-04 04:29 | 54.29978 | -80.18444 | 36612 ft | 500 kts | 73° |
| 2026-05-04 04:29 | 54.32030 | -80.07053 | 36615 ft | 500 kts | 73° |
| 2026-05-04 04:30 | 54.34189 | -79.95720 | 36618 ft | 500 kts | 70° |
| 2026-05-04 04:30 | 54.36835 | -79.84691 | 36621 ft | 500 kts | 66° |
| 2026-05-04 04:31 | 54.39596 | -79.73744 | 36624 ft | 500 kts | 67° |
| 2026-05-04 04:31 | 54.42284 | -79.62734 | 36627 ft | 499 kts | 68° |
| 2026-05-04 04:32 | 54.44923 | -79.51711 | 36629 ft | 499 kts | 68° |
| 2026-05-04 04:32 | 54.47575 | -79.40676 | 36632 ft | 499 kts | 67° |
| 2026-05-04 04:33 | 54.50296 | -79.29679 | 36637 ft | 499 kts | 68° |
| 2026-05-04 04:33 | 54.52959 | -79.18647 | 36640 ft | 499 kts | 68° |
| 2026-05-04 04:34 | 54.55590 | -79.07593 | 36641 ft | 499 kts | 68° |
| 2026-05-04 04:34 | 54.58208 | -78.96506 | 36643 ft | 499 kts | 68° |
| 2026-05-04 04:35 | 54.60811 | -78.85410 | 36644 ft | 499 kts | 68° |
| 2026-05-04 04:35 | 54.63404 | -78.74291 | 36646 ft | 499 kts | 69° |
| 2026-05-04 04:36 | 54.65986 | -78.63162 | 36647 ft | 500 kts | 69° |
| 2026-05-04 04:36 | 54.68560 | -78.52011 | 36649 ft | 500 kts | 69° |
| 2026-05-04 04:37 | 54.73677 | -78.29659 | 36651 ft | 500 kts | 69° |
| 2026-05-04 04:38 | 54.76222 | -78.18456 | 36652 ft | 500 kts | 69° |
| 2026-05-04 04:38 | 54.78752 | -78.07257 | 36655 ft | 500 kts | 69° |
| 2026-05-04 04:39 | 54.81275 | -77.96032 | 36656 ft | 500 kts | 69° |
| 2026-05-04 04:39 | 54.83771 | -77.84869 | 36657 ft | 500 kts | 70° |
| 2026-05-04 04:40 | 54.86276 | -77.73599 | 36657 ft | 500 kts | 70° |
| 2026-05-04 04:40 | 54.88765 | -77.62345 | 36659 ft | 500 kts | 70° |
| 2026-05-04 04:41 | 54.91244 | -77.51074 | 36659 ft | 499 kts | 70° |
| 2026-05-04 04:41 | 54.93712 | -77.39793 | 36659 ft | 499 kts | 70° |
| 2026-05-04 04:42 | 54.96171 | -77.28488 | 36659 ft | 499 kts | 70° |
| 2026-05-04 04:42 | 54.98619 | -77.17176 | 36660 ft | 499 kts | 70° |
| 2026-05-04 04:43 | 55.01054 | -77.05859 | 36660 ft | 500 kts | 70° |
| 2026-05-04 04:43 | 55.03485 | -76.94500 | 36661 ft | 500 kts | 70° |
| 2026-05-04 04:44 | 55.05899 | -76.83155 | 36661 ft | 499 kts | 71° |
| 2026-05-04 04:44 | 55.08306 | -76.71777 | 36662 ft | 499 kts | 71° |
| 2026-05-04 04:45 | 55.10700 | -76.60404 | 36662 ft | 499 kts | 71° |
| 2026-05-04 04:47 | 55.18977 | -76.20564 | 36665 ft | 499 kts | 71° |
| 2026-05-04 04:47 | 55.21322 | -76.09133 | 36666 ft | 498 kts | 71° |
| 2026-05-04 04:48 | 55.23654 | -75.97695 | 36667 ft | 498 kts | 72° |
| 2026-05-04 04:49 | 55.29047 | -75.70997 | 36673 ft | 498 kts | 72° |
| 2026-05-04 04:49 | 55.31341 | -75.59531 | 36677 ft | 498 kts | 72° |
| 2026-05-04 04:50 | 55.33626 | -75.48040 | 36679 ft | 498 kts | 72° |
| 2026-05-04 04:50 | 55.35899 | -75.36544 | 36680 ft | 498 kts | 72° |
| 2026-05-04 04:51 | 55.38164 | -75.25020 | 36682 ft | 498 kts | 72° |
| 2026-05-04 04:51 | 55.40418 | -75.13484 | 36684 ft | 499 kts | 72° |
| 2026-05-04 04:52 | 55.42660 | -75.01939 | 36685 ft | 499 kts | 73° |
| 2026-05-04 04:52 | 55.44898 | -74.90346 | 36686 ft | 499 kts | 73° |
| 2026-05-04 04:53 | 55.47121 | -74.78765 | 36688 ft | 499 kts | 73° |
| 2026-05-04 04:53 | 55.49337 | -74.67144 | 36689 ft | 499 kts | 73° |
| 2026-05-04 04:54 | 55.51539 | -74.55528 | 36690 ft | 499 kts | 73° |
| 2026-05-04 04:54 | 55.53730 | -74.43902 | 36691 ft | 499 kts | 73° |
| 2026-05-04 04:55 | 55.55910 | -74.32257 | 36692 ft | 499 kts | 73° |
| 2026-05-04 04:55 | 55.58075 | -74.20625 | 36693 ft | 499 kts | 73° |
| 2026-05-04 04:56 | 55.60233 | -74.08959 | 36695 ft | 499 kts | 74° |
| 2026-05-04 04:56 | 55.62363 | -73.97369 | 36696 ft | 498 kts | 74° |
| 2026-05-04 04:57 | 55.64498 | -73.85681 | 36696 ft | 499 kts | 74° |
| 2026-05-04 04:57 | 55.66621 | -73.73983 | 36698 ft | 499 kts | 74° |
| 2026-05-04 04:58 | 55.68734 | -73.62267 | 36710 ft | 499 kts | 75° |
| 2026-05-04 04:58 | 55.70833 | -73.50552 | 36723 ft | 499 kts | 75° |
| 2026-05-04 04:59 | 55.72925 | -73.38809 | 36725 ft | 499 kts | 75° |
| 2026-05-04 04:59 | 55.75006 | -73.27044 | 36726 ft | 499 kts | 75° |
| 2026-05-04 05:00 | 55.77076 | -73.15269 | 36728 ft | 499 kts | 75° |
| 2026-05-04 05:01 | 55.80147 | -72.97654 | 36730 ft | 499 kts | 75° |
| 2026-05-04 05:01 | 55.82186 | -72.85864 | 36731 ft | 500 kts | 75° |
| 2026-05-04 05:02 | 55.84219 | -72.74033 | 36733 ft | 499 kts | 76° |
| 2026-05-04 05:02 | 55.86238 | -72.62198 | 36734 ft | 499 kts | 76° |
| 2026-05-04 05:03 | 55.88245 | -72.50365 | 36736 ft | 499 kts | 76° |
| 2026-05-04 05:04 | 55.92221 | -72.26670 | 36739 ft | 499 kts | 76° |
| 2026-05-04 05:04 | 55.94191 | -72.14811 | 36741 ft | 498 kts | 76° |
| 2026-05-04 05:06 | 56.01952 | -71.67291 | 36749 ft | 498 kts | 77° |
| 2026-05-04 05:07 | 56.03862 | -71.55390 | 36758 ft | 498 kts | 77° |
| 2026-05-04 05:07 | 56.05762 | -71.43472 | 36759 ft | 498 kts | 77° |
| 2026-05-04 05:09 | 56.14151 | -70.89799 | 36767 ft | 498 kts | 78° |
| 2026-05-04 05:10 | 56.15991 | -70.77796 | 36768 ft | 499 kts | 78° |
| 2026-05-04 05:10 | 56.17820 | -70.65771 | 36770 ft | 499 kts | 78° |
| 2026-05-04 05:11 | 56.19636 | -70.53744 | 36771 ft | 499 kts | 78° |
| 2026-05-04 05:11 | 56.21441 | -70.41706 | 36773 ft | 500 kts | 78° |
| 2026-05-04 05:12 | 56.23237 | -70.29638 | 36774 ft | 500 kts | 78° |
| 2026-05-04 05:12 | 56.25021 | -70.17553 | 36775 ft | 500 kts | 78° |
| 2026-05-04 05:13 | 56.26794 | -70.05460 | 36776 ft | 500 kts | 79° |
| 2026-05-04 05:13 | 56.28556 | -69.93344 | 36778 ft | 500 kts | 79° |
| 2026-05-04 05:14 | 56.30294 | -69.81301 | 36779 ft | 500 kts | 79° |
| 2026-05-04 05:14 | 56.32029 | -69.69194 | 36780 ft | 500 kts | 79° |
| 2026-05-04 05:15 | 56.33753 | -69.57061 | 36782 ft | 500 kts | 79° |
| 2026-05-04 05:15 | 56.35467 | -69.44910 | 36783 ft | 500 kts | 79° |
| 2026-05-04 05:16 | 56.37168 | -69.32756 | 36784 ft | 500 kts | 79° |
| 2026-05-04 05:16 | 56.38857 | -69.20591 | 36785 ft | 500 kts | 79° |
| 2026-05-04 05:17 | 56.40534 | -69.08418 | 36785 ft | 500 kts | 80° |
| 2026-05-04 05:17 | 56.42199 | -68.96230 | 36787 ft | 500 kts | 80° |
| 2026-05-04 05:18 | 56.43854 | -68.84022 | 36788 ft | 500 kts | 80° |
| 2026-05-04 05:18 | 56.45496 | -68.71802 | 36787 ft | 501 kts | 81° |
| 2026-05-04 05:19 | 56.47118 | -68.59638 | 36789 ft | 501 kts | 81° |
| 2026-05-04 05:19 | 56.48740 | -68.47374 | 36795 ft | 501 kts | 81° |
| 2026-05-04 05:20 | 56.50350 | -68.35096 | 36802 ft | 501 kts | 81° |
| 2026-05-04 05:20 | 56.51948 | -68.22811 | 36803 ft | 502 kts | 81° |
| 2026-05-04 05:21 | 56.53536 | -68.10493 | 36803 ft | 502 kts | 81° |
| 2026-05-04 05:21 | 56.55110 | -67.98188 | 36803 ft | 502 kts | 81° |
| 2026-05-04 05:22 | 56.56674 | -67.85851 | 36803 ft | 502 kts | 82° |
| 2026-05-04 05:22 | 56.58226 | -67.73505 | 36803 ft | 502 kts | 82° |
| 2026-05-04 05:23 | 56.59765 | -67.61151 | 36803 ft | 502 kts | 82° |
| 2026-05-04 05:23 | 56.61347 | -67.48826 | 36803 ft | 502 kts | 81° |
| 2026-05-04 05:24 | 56.62869 | -67.36480 | 36803 ft | 501 kts | 82° |
| 2026-05-04 05:24 | 56.64338 | -67.24116 | 36805 ft | 501 kts | 83° |
| 2026-05-04 05:25 | 56.65803 | -67.11720 | 36804 ft | 501 kts | 83° |
| 2026-05-04 05:25 | 56.67588 | -66.99466 | 36806 ft | 505 kts | 73° |
| 2026-05-04 05:26 | 56.70664 | -66.87995 | 36805 ft | 510 kts | 65° |
| 2026-05-04 05:26 | 56.74181 | -66.76707 | 36803 ft | 514 kts | 65° |
| 2026-05-04 05:28 | 56.88063 | -66.31130 | 36804 ft | 513 kts | 65° |
| 2026-05-04 05:29 | 56.91533 | -66.19705 | 36805 ft | 513 kts | 65° |
| 2026-05-04 05:29 | 56.94965 | -66.08238 | 36805 ft | 513 kts | 65° |
| 2026-05-04 05:31 | 57.08552 | -65.62089 | 36807 ft | 513 kts | 66° |
| 2026-05-04 05:32 | 57.11919 | -65.50501 | 36807 ft | 514 kts | 66° |
| 2026-05-04 05:33 | 57.16955 | -65.33060 | 36808 ft | 514 kts | 66° |
| 2026-05-04 05:33 | 57.20298 | -65.21411 | 36808 ft | 514 kts | 66° |
| 2026-05-04 05:34 | 57.23612 | -65.09806 | 36808 ft | 515 kts | 67° |
| 2026-05-04 05:34 | 57.26943 | -64.98081 | 36811 ft | 515 kts | 67° |
| 2026-05-04 05:35 | 57.30261 | -64.86345 | 36812 ft | 515 kts | 67° |
| 2026-05-04 05:35 | 57.33573 | -64.74559 | 36810 ft | 516 kts | 67° |
| 2026-05-04 05:36 | 57.36322 | -64.64751 | 36810 ft | 516 kts | 67° |
| 2026-05-04 05:36 | 57.39612 | -64.52928 | 36810 ft | 517 kts | 67° |
| 2026-05-04 05:37 | 57.42900 | -64.41066 | 36808 ft | 517 kts | 67° |
| 2026-05-04 05:37 | 57.46177 | -64.29192 | 36810 ft | 517 kts | 67° |
| 2026-05-04 05:38 | 57.51070 | -64.11315 | 36813 ft | 517 kts | 67° |
| 2026-05-04 05:38 | 57.54316 | -63.99386 | 36821 ft | 517 kts | 68° |
| 2026-05-04 05:39 | 57.59171 | -63.81435 | 36815 ft | 517 kts | 68° |
| 2026-05-04 05:40 | 57.64005 | -63.63409 | 36813 ft | 518 kts | 68° |
| 2026-05-04 05:40 | 57.67195 | -63.51432 | 36811 ft | 518 kts | 68° |
| 2026-05-04 05:41 | 57.70396 | -63.39357 | 36813 ft | 518 kts | 68° |
| 2026-05-04 05:41 | 57.73585 | -63.27257 | 36811 ft | 519 kts | 68° |
| 2026-05-04 05:42 | 57.76764 | -63.15133 | 36812 ft | 519 kts | 68° |
| 2026-05-04 05:42 | 57.79944 | -63.02943 | 36811 ft | 520 kts | 68° |
| 2026-05-04 05:43 | 57.83106 | -62.90745 | 36811 ft | 520 kts | 68° |
| 2026-05-04 05:45 | 57.95677 | -62.41609 | 36815 ft | 522 kts | 69° |
| 2026-05-04 05:47 | 58.08055 | -61.92122 | 36817 ft | 522 kts | 69° |
| 2026-05-04 05:47 | 58.11123 | -61.79683 | 36817 ft | 522 kts | 69° |
| 2026-05-04 05:48 | 58.14179 | -61.67224 | 36818 ft | 522 kts | 69° |
| 2026-05-04 05:48 | 58.17224 | -61.54738 | 36819 ft | 522 kts | 69° |
| 2026-05-04 05:49 | 58.20254 | -61.42242 | 36820 ft | 521 kts | 69° |
| 2026-05-04 05:49 | 58.23265 | -61.29754 | 36821 ft | 520 kts | 69° |
| 2026-05-04 05:51 | 58.35163 | -60.79689 | 36831 ft | 521 kts | 69° |
| 2026-05-04 05:52 | 58.38115 | -60.67087 | 36862 ft | 522 kts | 69° |
| 2026-05-04 05:52 | 58.41060 | -60.54438 | 36864 ft | 522 kts | 69° |
| 2026-05-04 05:54 | 58.52571 | -60.04274 | 38927 ft | 509 kts | 70° |
| 2026-05-04 05:55 | 58.55393 | -59.91793 | 38930 ft | 511 kts | 70° |
| 2026-05-04 05:55 | 58.58202 | -59.79283 | 38932 ft | 511 kts | 70° |
| 2026-05-04 05:56 | 58.60998 | -59.66771 | 38935 ft | 510 kts | 70° |
| 2026-05-04 05:56 | 58.63775 | -59.54273 | 38936 ft | 509 kts | 70° |
| 2026-05-04 05:57 | 58.66542 | -59.41740 | 38938 ft | 509 kts | 70° |
| 2026-05-04 05:57 | 58.69292 | -59.29211 | 38935 ft | 509 kts | 70° |
| 2026-05-04 05:58 | 58.72036 | -59.16633 | 38932 ft | 510 kts | 70° |
| 2026-05-04 05:58 | 58.74766 | -59.04042 | 38933 ft | 510 kts | 70° |
| 2026-05-04 05:59 | 58.77486 | -58.91420 | 38935 ft | 510 kts | 70° |
| 2026-05-04 05:59 | 58.80188 | -58.78808 | 38937 ft | 510 kts | 71° |
| 2026-05-04 06:00 | 58.82884 | -58.66141 | 38939 ft | 510 kts | 71° |
| 2026-05-04 06:00 | 58.85578 | -58.53557 | 38941 ft | 510 kts | 70° |
| 2026-05-04 06:01 | 58.88310 | -58.40823 | 38943 ft | 510 kts | 71° |